Time;durP1;ratioP1;P1;durP2;ratioP2;P2;SDS_P1;SDS_P2;PMS_P1;PMS_P2;Temp;Humidity;BMP_temperature;BMP_pressure;BME280_temperature;BME280_humidity;BME280_pressure;Samples;Min_cycle;Max_cycle;Signal;HPM_P1;HPM_P2
2022/09/16 00:01:15;;;;;;;;;;;;;;;27.60;44.21;93803.25;5051503;28;8887;-87
2022/09/16 00:03:42;;;;;;;;;;;;;;;27.60;44.14;93808.03;5038803;28;9117;-87
2022/09/16 00:06:22;;;;;;;;;;;;;;;27.59;44.43;93826.63;5038813;28;9079;-87
2022/09/16 00:08:49;;;;;;;;;;;;;;;27.57;43.76;93826.44;5039359;28;9068;-87
2022/09/16 00:11:20;;;;;;;;;;;;;;;27.58;44.21;93836.19;5054398;28;9258;-87
2022/09/16 00:13:48;;;;;;;;;;;;;;;27.56;44.13;93836.00;5039103;28;9022;-87
2022/09/16 00:16:24;;;;;;;;;;;;;;;27.59;44.16;93820.38;5036069;28;9041;-87
2022/09/16 00:18:56;;;;;;;;;;;;;;;27.58;44.11;93800.28;5051957;28;8236;-87
2022/09/16 00:21:23;;;;;;;;;;;;;;;27.54;43.79;93799.13;5040387;28;8706;-87
2022/09/16 00:23:49;;;;;;;;;;;;;;;27.57;43.81;93804.34;5041683;28;8867;-87
2022/09/16 00:26:17;;;;;;;;;;;;;;;27.54;43.84;93810.19;5036829;28;8738;-88
2022/09/16 00:28:43;;;;;;;;;;;;;;;27.56;44.15;93802.84;5036932;28;9039;-87
2022/09/16 00:31:11;;;;;;;;;;;;;;;27.56;44.22;93800.06;5033424;28;8991;-87
2022/09/16 00:33:37;;;;;;;;;;;;;;;27.57;43.94;93809.88;5033880;28;9310;-87
2022/09/16 00:36:18;;;;;;;;;;;;;;;27.56;44.02;93807.63;5032713;28;8710;-89
2022/09/16 00:38:50;;;;;;;;;;;;;;;27.57;43.71;93812.63;5032090;28;9086;-87
2022/09/16 00:41:21;;;;;;;;;;;;;;;27.53;44.07;93808.72;5038957;28;9198;-87
2022/09/16 00:44:05;;;;;;;;;;;;;;;27.54;44.18;93805.41;5035528;28;9261;-87
2022/09/16 00:46:48;;;;;;;;;;;;;;;27.55;43.84;93803.38;5050348;28;9116;-87
2022/09/16 00:49:21;;;;;;;;;;;;;;;27.57;43.76;93793.28;5033866;28;8768;-87
2022/09/16 00:51:57;;;;;;;;;;;;;;;27.55;44.03;93800.63;5023979;28;6868;-88
2022/09/16 00:54:24;;;;;;;;;;;;;;;27.56;43.88;93808.38;5037327;28;10211;-87
2022/09/16 00:56:57;;;;;;;;;;;;;;;27.52;43.77;93805.19;5052855;28;9161;-87
2022/09/16 00:59:31;;;;;;;;;;;;;;;27.53;43.33;93806.66;5022324;28;9034;-88
2022/09/16 01:02:10;;;;;;;;;;;;;;;27.54;43.99;93810.19;5022555;28;7108;-88
2022/09/16 01:04:50;;;;;;;;;;;;;;;27.53;43.81;93801.13;5049823;28;8883;-88
2022/09/16 01:07:32;;;;;;;;;;;;;;;27.50;43.95;93795.97;5053111;28;9027;-88
2022/09/16 01:09:59;;;;;;;;;;;;;;;27.52;43.49;93802.44;5052336;28;7001;-87
2022/09/16 01:12:29;;;;;;;;;;;;;;;27.51;43.67;93800.94;5036578;28;8973;-87
2022/09/16 01:15:06;;;;;;;;;;;;;;;27.51;43.59;93791.94;5032145;28;8804;-89
2022/09/16 01:17:48;;;;;;;;;;;;;;;27.52;44.02;93788.63;5049802;28;9020;-87
2022/09/16 01:20:44;;;;;;;;;;;;;;;27.50;43.63;93785.66;5039673;28;8741;-87
2022/09/16 01:23:34;;;;;;;;;;;;;;;27.49;43.69;93786.22;5048804;28;9146;-88
2022/09/16 01:26:19;;;;;;;;;;;;;;;27.45;43.93;93780.25;5036184;28;8823;-87
2022/09/16 01:29:25;;;;;;;;;;;;;;;27.44;43.75;93776.78;5037290;28;9125;-87
2022/09/16 01:32:00;;;;;;;;;;;;;;;27.47;43.83;93772.91;5047436;28;9578;-87
2022/09/16 01:35:01;;;;;;;;;;;;;;;27.45;43.85;93772.72;5038573;28;8909;-88
2022/09/16 01:37:27;;;;;;;;;;;;;;;27.47;43.84;93778.44;5031997;28;8840;-88
2022/09/16 01:40:15;;;;;;;;;;;;;;;27.41;44.04;93769.53;5036858;28;9034;-87
2022/09/16 01:43:02;;;;;;;;;;;;;;;27.47;43.75;93777.72;5036627;28;8624;-87
2022/09/16 01:45:50;;;;;;;;;;;;;;;27.46;43.36;93776.97;5031906;28;8592;-87
2022/09/16 01:48:32;;;;;;;;;;;;;;;27.44;43.61;93768.47;5020573;28;8753;-88
2022/09/16 01:51:41;;;;;;;;;;;;;;;27.40;43.59;93761.81;5019144;28;9670;-87
2022/09/16 01:54:25;;;;;;;;;;;;;;;27.43;43.78;93761.47;4961906;28;9083;-87
2022/09/16 01:57:02;;;;;;;;;;;;;;;27.45;43.60;93775.47;4965571;28;6996;-88
2022/09/16 01:59:48;;;;;;;;;;;;;;;27.44;43.74;93762.22;4981208;28;9048;-88
2022/09/16 02:02:26;;;;;;;;;;;;;;;27.40;43.91;93761.81;4979028;28;7209;-87
2022/09/16 02:04:58;;;;;;;;;;;;;;;27.39;43.88;93765.84;4965572;28;9054;-87
2022/09/16 02:07:34;;;;;;;;;;;;;;;27.39;43.66;93763.06;4964367;28;9095;-87
2022/09/16 02:10:12;;;;;;;;;;;;;;;27.40;43.51;93768.09;4965338;28;6882;-87
2022/09/16 02:12:43;;;;;;;;;;;;;;;27.40;43.69;93765.31;4981480;28;7278;-88
2022/09/16 02:15:17;;;;;;;;;;;;;;;27.39;43.89;93768.59;4981653;28;9093;-87
2022/09/16 02:17:53;;;;;;;;;;;;;;;27.40;43.93;93770.84;4965995;28;9138;-87
2022/09/16 02:20:30;;;;;;;;;;;;;;;27.38;43.78;93765.09;4980534;28;9038;-88
2022/09/16 02:23:14;;;;;;;;;;;;;;;27.37;43.81;93763.63;4942035;28;9029;-87
2022/09/16 02:25:44;;;;;;;;;;;;;;;27.36;43.52;93753.13;4965842;28;8867;-87
2022/09/16 02:28:18;;;;;;;;;;;;;;;27.38;43.73;93759.56;5008417;28;7087;-88
2022/09/16 02:30:53;;;;;;;;;;;;;;;27.38;43.49;93769.88;5037318;28;8811;-87
2022/09/16 02:33:30;;;;;;;;;;;;;;;27.36;43.32;93756.59;5035505;28;10004;-87
2022/09/16 02:36:05;;;;;;;;;;;;;;;27.37;43.51;93760.09;5035516;28;8981;-87
2022/09/16 02:38:44;;;;;;;;;;;;;;;27.37;43.60;93760.84;5036247;28;7578;-86
2022/09/16 02:41:13;;;;;;;;;;;;;;;27.34;43.65;93753.59;5051099;28;9008;-87
2022/09/16 02:43:47;;;;;;;;;;;;;;;27.35;43.53;93757.13;5036291;28;8756;-88
2022/09/16 02:46:19;;;;;;;;;;;;;;;27.33;43.66;93754.16;5033018;28;9032;-88
2022/09/16 02:48:54;;;;;;;;;;;;;;;27.33;43.72;93746.63;5035003;28;9186;-87
2022/09/16 02:51:31;;;;;;;;;;;;;;;27.33;43.66;93754.91;5031020;28;9053;-87
2022/09/16 02:53:59;;;;;;;;;;;;;;;27.34;43.52;93752.88;5038303;28;10376;-88
2022/09/16 02:56:43;;;;;;;;;;;;;;;27.34;43.61;93753.59;5035168;28;8976;-87
2022/09/16 02:59:13;;;;;;;;;;;;;;;27.34;43.53;93752.88;5034426;28;9111;-88
2022/09/16 03:01:45;;;;;;;;;;;;;;;27.32;43.60;93750.66;5035760;28;8983;-87
2022/09/16 03:04:14;;;;;;;;;;;;;;;27.29;44.06;93735.16;5033176;28;8595;-88
2022/09/16 03:06:40;;;;;;;;;;;;;;;27.31;43.61;93737.38;5032052;28;9033;-87
2022/09/16 03:09:22;;;;;;;;;;;;;;;27.30;43.79;93735.88;5035451;28;8770;-87
2022/09/16 03:11:51;;;;;;;;;;;;;;;27.31;43.25;93729.09;5033579;28;9039;-88
2022/09/16 03:14:36;;;;;;;;;;;;;;;27.31;43.91;93720.81;5052828;28;9445;-87
2022/09/16 03:17:11;;;;;;;;;;;;;;;27.30;43.60;93714.53;5032903;28;8636;-89
2022/09/16 03:19:43;;;;;;;;;;;;;;;27.29;43.51;93717.84;5035790;28;8926;-88
2022/09/16 03:22:25;;;;;;;;;;;;;;;27.28;43.38;93710.84;5034259;28;8808;-87
2022/09/16 03:25:12;;;;;;;;;;;;;;;27.28;43.87;93700.53;5050511;28;8770;-87
2022/09/16 03:27:51;;;;;;;;;;;;;;;27.27;43.39;93703.84;5035573;28;9096;-87
2022/09/16 03:30:18;;;;;;;;;;;;;;;27.28;43.11;93700.53;5037302;28;8753;-87
2022/09/16 03:32:59;;;;;;;;;;;;;;;27.29;43.72;93707.56;5039235;28;10344;-88
2022/09/16 03:35:54;;;;;;;;;;;;;;;27.29;42.90;93702.03;5037413;28;8991;-87
2022/09/16 03:38:26;;;;;;;;;;;;;;;27.30;43.36;93695.22;5035433;28;7094;-88
2022/09/16 03:40:52;;;;;;;;;;;;;;;27.28;43.32;93697.78;5039135;28;7706;-88
2022/09/16 03:43:18;;;;;;;;;;;;;;;27.27;43.26;93699.06;5038268;28;9275;-88
2022/09/16 03:45:50;;;;;;;;;;;;;;;27.27;43.29;93687.28;5055916;28;6983;-87
2022/09/16 03:48:18;;;;;;;;;;;;;;;27.27;43.12;93690.03;5042096;28;8710;-88
2022/09/16 03:50:45;;;;;;;;;;;;;;;27.27;43.34;93690.03;5038276;28;9022;-87
2022/09/16 03:53:16;;;;;;;;;;;;;;;27.24;43.18;93689.09;5037440;28;8630;-88
2022/09/16 03:55:47;;;;;;;;;;;;;;;27.25;43.08;93685.03;5025550;28;9112;-87
2022/09/16 03:58:12;;;;;;;;;;;;;;;27.23;43.70;93684.13;5039189;28;7268;-87
2022/09/16 04:00:38;;;;;;;;;;;;;;;27.25;43.63;93678.78;5037772;28;9110;-87
2022/09/16 04:03:04;;;;;;;;;;;;;;;27.23;43.79;93682.06;5057708;28;8721;-87
2022/09/16 04:05:31;;;;;;;;;;;;;;;27.24;43.66;93678.06;5044852;28;9081;-87
2022/09/16 04:07:57;;;;;;;;;;;;;;;27.22;43.19;93674.34;5055396;28;7237;-88
2022/09/16 04:10:26;;;;;;;;;;;;;;;27.24;43.30;93671.78;5055179;28;8626;-87
2022/09/16 04:12:56;;;;;;;;;;;;;;;27.18;43.53;93660.13;5039031;28;9023;-87
2022/09/16 04:15:22;;;;;;;;;;;;;;;27.23;43.21;93673.06;5054283;28;9012;-88
2022/09/16 04:17:51;;;;;;;;;;;;;;;27.22;43.19;93663.31;5040055;28;8729;-87
2022/09/16 04:20:22;;;;;;;;;;;;;;;27.21;43.00;93657.03;5039439;28;9204;-87
2022/09/16 04:22:48;;;;;;;;;;;;;;;27.19;43.49;93659.59;5037409;28;9784;-88
2022/09/16 04:25:14;;;;;;;;;;;;;;;27.24;43.39;93666.25;5039411;28;7234;-87
2022/09/16 04:27:41;;;;;;;;;;;;;;;27.21;42.92;93662.56;5023674;28;8606;-88
2022/09/16 04:30:08;;;;;;;;;;;;;;;27.20;43.92;93661.09;5037751;28;6992;-87
2022/09/16 04:32:35;;;;;;;;;;;;;;;27.21;43.30;93657.03;5055277;28;7062;-87
2022/09/16 04:35:04;;;;;;;;;;;;;;;27.23;43.00;93662.75;5039392;28;8851;-87
2022/09/16 04:37:38;;;;;;;;;;;;;;;27.24;43.19;93655.22;5036866;28;8820;-86
2022/09/16 04:40:12;;;;;;;;;;;;;;;27.21;43.27;93659.78;5036322;28;8756;-87
2022/09/16 04:42:40;;;;;;;;;;;;;;;27.19;42.89;93658.84;5054609;28;9006;-87
2022/09/16 04:45:06;;;;;;;;;;;;;;;27.17;43.62;93651.09;5036133;28;9025;-88
2022/09/16 04:47:32;;;;;;;;;;;;;;;27.17;43.19;93655.88;5037450;28;7934;-87
2022/09/16 04:49:58;;;;;;;;;;;;;;;27.18;43.26;93660.88;5035999;28;9103;-87
2022/09/16 04:52:24;;;;;;;;;;;;;;;27.19;43.57;93662.34;5037889;28;8930;-88
2022/09/16 04:54:52;;;;;;;;;;;;;;;27.18;43.07;93669.16;5050540;28;7237;-88
2022/09/16 04:57:23;;;;;;;;;;;;;;;27.15;43.62;93663.97;5070171;28;8212;-87
2022/09/16 04:59:51;;;;;;;;;;;;;;;27.13;43.06;93672.03;5067124;28;9393;-88
2022/09/16 05:02:17;;;;;;;;;;;;;;;27.08;43.48;93667.41;5047122;28;6865;-87
2022/09/16 05:04:43;;;;;;;;;;;;;;;27.04;43.75;93664.22;5064363;28;8789;-86
2022/09/16 05:07:10;;;;;;;;;;;;;;;26.99;43.77;93674.13;5050296;28;8617;-87
2022/09/16 05:09:38;;;;;;;;;;;;;;;27.00;43.60;93672.09;5046611;28;8634;-87
2022/09/16 05:12:07;;;;;;;;;;;;;;;27.03;44.09;93680.06;5067102;28;8745;-87
2022/09/16 05:14:33;;;;;;;;;;;;;;;27.03;43.67;93674.53;5049766;28;8737;-87
2022/09/16 05:16:59;;;;;;;;;;;;;;;27.04;44.40;93676.00;5050717;28;9092;-87
2022/09/16 05:19:25;;;;;;;;;;;;;;;27.03;43.91;93673.78;5054440;28;7160;-88
2022/09/16 05:21:51;;;;;;;;;;;;;;;27.06;43.70;93675.47;5049125;28;7021;-86
2022/09/16 05:24:17;;;;;;;;;;;;;;;27.05;43.32;93683.03;5052319;28;8836;-86
2022/09/16 05:26:43;;;;;;;;;;;;;;;27.01;43.10;93679.13;5053318;28;6953;-86
2022/09/16 05:29:12;;;;;;;;;;;;;;;27.00;43.69;93681.13;5073499;28;8992;-86
2022/09/16 05:31:41;;;;;;;;;;;;;;;26.94;43.84;93675.00;5052307;28;8757;-86
2022/09/16 05:34:12;;;;;;;;;;;;;;;27.00;43.72;93681.13;5069556;28;9027;-86
2022/09/16 05:36:42;;;;;;;;;;;;;;;27.01;43.77;93682.63;5048963;28;9018;-87
2022/09/16 05:39:14;;;;;;;;;;;;;;;27.01;43.73;93685.38;5068548;28;8823;-88
2022/09/16 05:41:41;;;;;;;;;;;;;;;27.01;43.45;93681.88;5048378;28;9045;-88
2022/09/16 05:44:07;;;;;;;;;;;;;;;27.05;43.79;93688.56;5050543;28;7528;-87
2022/09/16 05:46:34;;;;;;;;;;;;;;;27.05;43.77;93688.56;5050466;28;8659;-88
2022/09/16 05:49:03;;;;;;;;;;;;;;;27.03;43.24;93685.59;5042346;28;9095;-88
2022/09/16 05:51:33;;;;;;;;;;;;;;;27.02;43.70;93692.38;5066545;28;8818;-87
2022/09/16 05:53:59;;;;;;;;;;;;;;;27.04;43.62;93689.81;5071321;28;9144;-87
2022/09/16 05:56:30;;;;;;;;;;;;;;;27.06;43.15;93690.00;5069101;28;7145;-88
2022/09/16 05:59:03;;;;;;;;;;;;;;;27.15;43.21;93697.84;5053173;28;8752;-88
2022/09/16 06:01:33;;;;;;;;;;;;;;;27.18;42.75;93707.81;5066546;28;9023;-88
2022/09/16 06:04:01;;;;;;;;;;;;;;;27.15;42.85;93708.88;5070844;28;7363;-87
2022/09/16 06:06:31;;;;;;;;;;;;;;;27.17;43.14;93711.84;5049410;28;8741;-87
2022/09/16 06:09:04;;;;;;;;;;;;;;;27.09;43.07;93704.75;5058537;28;8826;-87
2022/09/16 06:11:30;;;;;;;;;;;;;;;27.05;43.57;93705.09;5046881;28;9088;-87
2022/09/16 06:13:59;;;;;;;;;;;;;;;27.13;43.38;93710.69;5057813;28;8602;-86
2022/09/16 06:16:33;;;;;;;;;;;;;;;27.11;43.15;93708.47;5038223;28;7038;-86
2022/09/16 06:19:05;;;;;;;;;;;;;;;27.09;43.56;93702.75;5056217;28;9057;-87
2022/09/16 06:21:32;;;;;;;;;;;;;;;27.12;43.30;93717.50;5050206;28;9258;-87
2022/09/16 06:24:02;;;;;;;;;;;;;;;27.10;43.61;93717.31;5064852;28;8934;-87
2022/09/16 06:26:28;;;;;;;;;;;;;;;27.12;43.69;93718.22;5056500;28;8770;-86
2022/09/16 06:28:56;;;;;;;;;;;;;;;27.12;42.96;93712.69;5055182;28;8763;-86
2022/09/16 06:31:26;;;;;;;;;;;;;;;27.06;43.57;93712.09;5045888;28;7273;-86
2022/09/16 06:33:57;;;;;;;;;;;;;;;27.05;44.04;93718.16;5055981;28;8780;-86
2022/09/16 06:36:26;;;;;;;;;;;;;;;27.02;43.96;93708.94;5039837;28;6865;-86
2022/09/16 06:38:52;;;;;;;;;;;;;;;27.01;43.45;93709.47;5047585;28;8729;-86
2022/09/16 06:41:20;;;;;;;;;;;;;;;27.04;43.88;93717.41;5058103;28;8725;-86
2022/09/16 06:43:47;;;;;;;;;;;;;;;27.06;44.12;93725.16;5058828;28;9001;-86
2022/09/16 06:46:19;;;;;;;;;;;;;;;27.05;43.94;93721.66;5033680;28;7559;-86
2022/09/16 06:48:51;;;;;;;;;;;;;;;27.02;44.25;93722.72;5059446;28;8736;-87
2022/09/16 06:51:30;;;;;;;;;;;;;;;27.02;44.11;93722.72;5045926;28;8917;-87
2022/09/16 06:54:08;;;;;;;;;;;;;;;26.99;44.31;93710.00;5064447;28;7275;-87
2022/09/16 06:56:37;;;;;;;;;;;;;;;26.98;44.16;93711.28;5049552;28;9135;-87
2022/09/16 06:59:04;;;;;;;;;;;;;;;26.98;44.24;93718.81;5045173;28;9313;-88
2022/09/16 07:01:31;;;;;;;;;;;;;;;26.95;44.31;93717.88;5050511;28;8734;-86
2022/09/16 07:04:01;;;;;;;;;;;;;;;26.90;44.50;93721.50;5053485;28;8817;-87
2022/09/16 07:06:32;;;;;;;;;;;;;;;26.92;44.63;93720.97;5050974;28;9093;-87
2022/09/16 07:09:07;;;;;;;;;;;;;;;26.94;44.08;93729.44;5052585;28;8762;-87
2022/09/16 07:11:33;;;;;;;;;;;;;;;26.94;44.47;93732.97;5052757;28;8947;-87
2022/09/16 07:14:01;;;;;;;;;;;;;;;26.93;44.63;93725.94;5050536;28;7126;-87
2022/09/16 07:16:27;;;;;;;;;;;;;;;26.95;43.88;93731.66;5050693;28;8977;-87
2022/09/16 07:18:57;;;;;;;;;;;;;;;27.03;44.31;93729.75;5068670;28;8729;-86
2022/09/16 07:21:30;;;;;;;;;;;;;;;26.99;43.96;93734.13;5050767;28;9027;-88
2022/09/16 07:23:59;;;;;;;;;;;;;;;26.97;44.17;93742.19;5067815;28;8720;-86
2022/09/16 07:26:38;;;;;;;;;;;;;;;26.95;44.43;93739.22;5050294;28;9037;-86
2022/09/16 07:29:12;;;;;;;;;;;;;;;26.90;44.58;93733.28;5050636;28;7239;-87
2022/09/16 07:31:39;;;;;;;;;;;;;;;26.91;44.13;93739.53;5040462;28;9447;-88
2022/09/16 07:34:09;;;;;;;;;;;;;;;26.90;44.54;93740.81;5055523;28;9041;-87
2022/09/16 07:36:38;;;;;;;;;;;;;;;26.90;44.14;93749.09;5067110;28;9072;-88
2022/09/16 07:39:08;;;;;;;;;;;;;;;26.92;44.51;93748.56;5069388;28;8637;-87
2022/09/16 07:41:38;;;;;;;;;;;;;;;26.90;44.18;93749.09;5069825;28;9028;-87
2022/09/16 07:44:06;;;;;;;;;;;;;;;26.92;44.53;93745.81;5070250;28;7034;-88
2022/09/16 07:46:36;;;;;;;;;;;;;;;26.93;44.40;93748.03;5051971;28;8730;-87
2022/09/16 07:49:10;;;;;;;;;;;;;;;26.94;44.50;93748.78;5051827;28;8333;-87
2022/09/16 07:51:36;;;;;;;;;;;;;;;26.96;44.09;93748.97;5063801;28;8624;-87
2022/09/16 07:54:10;;;;;;;;;;;;;;;26.98;44.22;93749.19;5067843;28;9131;-87
2022/09/16 07:56:40;;;;;;;;;;;;;;;26.93;44.51;93734.22;5051670;28;8907;-87
2022/09/16 07:59:10;;;;;;;;;;;;;;;26.92;44.36;93737.53;5069371;28;9013;-86
2022/09/16 08:01:36;;;;;;;;;;;;;;;26.93;44.74;93742.50;5051555;28;8189;-87
2022/09/16 08:04:03;;;;;;;;;;;;;;;26.98;44.21;93749.94;5069430;28;8738;-87
2022/09/16 08:06:31;;;;;;;;;;;;;;;26.96;44.17;93749.72;5050493;28;8965;-87
2022/09/16 08:09:01;;;;;;;;;;;;;;;26.96;44.34;93758.00;5051226;28;8993;-87
2022/09/16 08:11:28;;;;;;;;;;;;;;;26.92;44.50;93747.28;5050402;28;9094;-87
2022/09/16 08:13:58;;;;;;;;;;;;;;;26.98;44.34;93752.69;5069404;28;8736;-86
2022/09/16 08:16:25;;;;;;;;;;;;;;;26.99;44.41;93758.94;5054262;28;8992;-86
2022/09/16 08:18:54;;;;;;;;;;;;;;;26.98;44.26;93758.19;5052197;28;8586;-86
2022/09/16 08:21:23;;;;;;;;;;;;;;;26.95;44.54;93748.22;5054019;28;8989;-86
2022/09/16 08:23:50;;;;;;;;;;;;;;;26.97;44.48;93753.94;5071031;28;8959;-87
2022/09/16 08:26:17;;;;;;;;;;;;;;;26.98;44.96;93758.19;5047782;28;8745;-87
2022/09/16 08:28:45;;;;;;;;;;;;;;;26.95;44.55;93748.22;5058465;28;8747;-86
2022/09/16 08:31:12;;;;;;;;;;;;;;;26.97;44.62;93753.22;5051092;28;7036;-87
2022/09/16 08:33:43;;;;;;;;;;;;;;;26.96;45.12;93746.97;5058977;28;8829;-86
2022/09/16 08:36:21;;;;;;;;;;;;;;;26.97;44.99;93756.00;5067005;28;9094;-86
2022/09/16 08:38:50;;;;;;;;;;;;;;;26.97;45.28;93753.22;5052402;28;7282;-86
2022/09/16 08:41:27;;;;;;;;;;;;;;;27.00;44.96;93754.91;5053899;28;8972;-88
2022/09/16 08:44:18;;;;;;;;;;;;;;;26.97;44.86;93753.94;5060031;28;9015;-87
2022/09/16 08:46:52;;;;;;;;;;;;;;;27.01;44.64;93765.44;5071580;28;9004;-87
2022/09/16 08:49:39;;;;;;;;;;;;;;;27.01;45.26;93753.63;5057154;28;9216;-88
2022/09/16 08:52:13;;;;;;;;;;;;;;;27.02;44.67;93761.38;5072030;28;9013;-87
2022/09/16 08:54:48;;;;;;;;;;;;;;;27.02;44.68;93757.88;5070562;28;7061;-87
2022/09/16 08:57:20;;;;;;;;;;;;;;;27.03;44.86;93756.59;5043290;28;8811;-87
2022/09/16 08:59:53;;;;;;;;;;;;;;;27.03;44.83;93760.09;5070400;28;7685;-87
2022/09/16 09:02:49;;;;;;;;;;;;;;;26.99;44.75;93754.16;5073548;28;8997;-86
2022/09/16 09:05:21;;;;;;;;;;;;;;;27.00;45.19;93755.66;4956283;28;9002;-88
2022/09/16 09:08:25;;;;;;;;;;;;;;;26.97;44.93;93753.22;4974222;28;9307;-86
2022/09/16 09:11:00;;;;;;;;;;;;;;;26.99;45.17;93758.94;4972580;28;7522;-87
2022/09/16 09:13:47;;;;;;;;;;;;;;;27.03;44.59;93762.88;4957711;28;7038;-87
2022/09/16 09:16:39;;;;;;;;;;;;;;;27.00;45.11;93761.16;4956691;28;9275;-86
2022/09/16 09:19:23;;;;;;;;;;;;;;;27.00;45.53;93758.41;4974311;28;9024;-88
2022/09/16 09:22:02;;;;;;;;;;;;;;;27.02;45.17;93749.59;4988778;28;9100;-87
2022/09/16 09:24:53;;;;;;;;;;;;;;;27.05;45.04;93737.47;4985655;28;7044;-88
2022/09/16 09:27:30;;;;;;;;;;;;;;;27.06;44.88;93734.19;4973731;28;8983;-86
2022/09/16 09:30:22;;;;;;;;;;;;;;;27.07;45.31;93735.69;4955299;28;9285;-88
2022/09/16 09:33:25;;;;;;;;;;;;;;;27.01;45.71;93729.53;4968129;28;7239;-86
2022/09/16 09:35:57;;;;;;;;;;;;;;;27.03;45.53;93731.75;4962897;28;7033;-86
2022/09/16 09:38:54;;;;;;;;;;;;;;;27.06;44.90;93723.13;4947726;28;8772;-86
2022/09/16 09:41:55;;;;;;;;;;;;;;;27.09;44.95;93727.59;4973609;28;9052;-86
2022/09/16 09:44:20;;;;;;;;;;;;;;;27.12;44.96;93725.78;5059384;28;7450;-86
2022/09/16 09:46:56;;;;;;;;;;;;;;;27.14;44.68;93723.97;5063913;28;9083;-86
2022/09/16 09:49:36;;;;;;;;;;;;;;;27.17;44.83;93722.13;5043599;28;7242;-86
2022/09/16 09:52:09;;;;;;;;;;;;;;;27.16;44.82;93726.94;5061580;28;7273;-86
2022/09/16 09:54:37;;;;;;;;;;;;;;;27.14;44.97;93726.75;5056831;28;8757;-85
2022/09/16 09:57:34;;;;;;;;;;;;;;;27.16;44.52;93717.91;5056222;28;6869;-85
2022/09/16 10:00:10;;;;;;;;;;;;;;;27.15;44.18;93714.41;5038758;28;9027;-86
2022/09/16 10:02:41;;;;;;;;;;;;;;;27.19;44.87;93717.56;5039958;28;7351;-86
2022/09/16 10:05:35;;;;;;;;;;;;;;;27.15;45.19;93714.41;5026949;28;9099;-86
2022/09/16 10:08:08;;;;;;;;;;;;;;;27.15;44.82;93714.41;5038474;28;9092;-85
2022/09/16 10:10:54;;;;;;;;;;;;;;;27.15;44.99;93714.41;5055810;28;9005;-85
2022/09/16 10:13:22;;;;;;;;;;;;;;;27.14;45.20;93718.47;5027106;28;7272;-86
2022/09/16 10:15:53;;;;;;;;;;;;;;;27.15;45.41;93719.19;5027230;28;8548;-86
2022/09/16 10:18:31;;;;;;;;;;;;;;;27.14;45.09;93723.97;5041844;28;6869;-87
2022/09/16 10:21:02;;;;;;;;;;;;;;;27.14;45.47;93718.47;5039303;28;9011;-86
2022/09/16 10:23:28;;;;;;;;;;;;;;;27.13;45.38;93716.97;5056321;28;9107;-86
2022/09/16 10:26:12;;;;;;;;;;;;;;;27.13;45.93;93708.69;5024650;28;8773;-87
2022/09/16 10:28:38;;;;;;;;;;;;;;;27.15;45.25;93714.41;5051867;28;10033;-86
2022/09/16 10:31:07;;;;;;;;;;;;;;;27.17;45.74;93709.09;5036569;28;9029;-86
2022/09/16 10:33:42;;;;;;;;;;;;;;;27.18;45.29;93713.34;5035950;28;6870;-86
2022/09/16 10:36:19;;;;;;;;;;;;;;;27.20;45.48;93710.03;5033631;28;6993;-88
2022/09/16 10:38:53;;;;;;;;;;;;;;;27.20;45.72;93704.50;5052743;28;8953;-86
2022/09/16 10:41:26;;;;;;;;;;;;;;;27.20;46.07;93699.00;5034685;28;9087;-86
2022/09/16 10:44:08;;;;;;;;;;;;;;;27.18;45.81;93707.06;5039624;28;8753;-86
2022/09/16 10:46:36;;;;;;;;;;;;;;;27.14;45.49;93698.38;5050022;28;10123;-87
2022/09/16 10:49:20;;;;;;;;;;;;;;;27.17;46.30;93720.13;5034901;28;7102;-86
2022/09/16 10:51:48;;;;;;;;;;;;;;;27.16;46.02;93726.19;5036752;28;7517;-87
2022/09/16 10:54:30;;;;;;;;;;;;;;;27.14;45.93;93710.19;5038947;28;9082;-86
2022/09/16 10:56:56;;;;;;;;;;;;;;;27.18;45.51;93724.38;5037952;28;8753;-87
2022/09/16 10:59:22;;;;;;;;;;;;;;;27.20;45.17;93732.88;5053649;28;8707;-87
2022/09/16 11:02:16;;;;;;;;;;;;;;;27.21;45.83;93725.34;5038886;28;9030;-87
2022/09/16 11:05:06;;;;;;;;;;;;;;;27.11;45.71;93727.81;5057771;28;8906;-86
2022/09/16 11:07:41;;;;;;;;;;;;;;;27.07;45.69;93730.16;5042709;28;6869;-87
2022/09/16 11:10:40;;;;;;;;;;;;;;;27.05;45.48;93743.75;5044432;28;8751;-88
2022/09/16 11:13:17;;;;;;;;;;;;;;;27.07;45.43;93748.72;5044333;28;7508;-86
2022/09/16 11:16:13;;;;;;;;;;;;;;;27.13;43.96;93754.84;5035533;28;8739;-87
2022/09/16 11:19:06;;;;;;;;;;;;;;;27.13;42.78;93758.38;5022458;28;8792;-86
2022/09/16 11:22:17;;;;;;;;;;;;;;;27.07;43.96;93763.28;4967545;28;7037;-87
2022/09/16 11:25:01;;;;;;;;;;;;;;;27.09;44.10;93760.72;4893487;29;9043;-86
2022/09/16 11:27:35;;;;;;;;;;;;;;;27.10;44.12;93769.75;4892755;29;7224;-87
2022/09/16 11:30:16;;;;;;;;;;;;;;;27.11;44.09;93757.41;4892158;29;7245;-87
2022/09/16 11:33:13;;;;;;;;;;;;;;;27.16;43.96;93765.59;4887042;29;8981;-86
2022/09/16 11:36:12;;;;;;;;;;;;;;;27.19;43.70;93763.75;4895108;29;7230;-86
2022/09/16 11:39:16;;;;;;;;;;;;;;;27.18;43.54;93763.03;4891624;29;8676;-86
2022/09/16 11:41:47;;;;;;;;;;;;;;;27.18;43.54;93762.28;4889095;29;9044;-86
2022/09/16 11:44:39;;;;;;;;;;;;;;;27.19;43.84;93761.75;4887278;29;8851;-85
2022/09/16 11:47:13;;;;;;;;;;;;;;;27.19;43.41;93758.97;4857950;29;8774;-86
2022/09/16 11:49:51;;;;;;;;;;;;;;;27.18;43.77;93757.50;4857395;29;9368;-87
2022/09/16 11:52:56;;;;;;;;;;;;;;;27.19;43.80;93763.75;4857109;29;9433;-86
2022/09/16 11:56:13;;;;;;;;;;;;;;;27.20;43.76;93765.25;4851501;29;7037;-86
2022/09/16 11:59:01;;;;;;;;;;;;;;;27.18;43.84;93763.03;4838246;29;7143;-86
2022/09/16 12:01:38;;;;;;;;;;;;;;;27.20;44.09;93760.47;4861499;29;7253;-86
2022/09/16 12:04:24;;;;;;;;;;;;;;;27.17;44.02;93758.78;4907332;29;9053;-85
2022/09/16 12:07:11;;;;;;;;;;;;;;;27.18;44.13;93767.81;4921145;29;7010;-86
2022/09/16 12:09:56;;;;;;;;;;;;;;;27.18;44.52;93765.03;4906910;29;7026;-87
2022/09/16 12:12:46;;;;;;;;;;;;;;;27.18;44.74;93759.53;4920690;28;9467;-86
2022/09/16 12:15:30;;;;;;;;;;;;;;;27.20;44.54;93768.00;4906509;29;7474;-87
2022/09/16 12:18:29;;;;;;;;;;;;;;;27.20;44.43;93768.00;4923304;29;7500;-86
2022/09/16 12:21:17;;;;;;;;;;;;;;;27.22;44.89;93759.94;4920542;29;8598;-86
2022/09/16 12:24:01;;;;;;;;;;;;;;;27.21;44.45;93756.41;4934761;28;6860;-86
2022/09/16 12:26:35;;;;;;;;;;;;;;;27.19;44.96;93758.97;4948309;28;8871;-86
2022/09/16 12:29:05;;;;;;;;;;;;;;;27.21;45.01;93766.75;4942109;28;10085;-86
2022/09/16 12:31:42;;;;;;;;;;;;;;;27.21;44.89;93764.69;4963533;28;6983;-86
2022/09/16 12:34:21;;;;;;;;;;;;;;;27.23;45.28;93767.66;5039804;28;9013;-86
2022/09/16 12:37:02;;;;;;;;;;;;;;;27.20;45.44;93759.72;5043793;28;9001;-86
2022/09/16 12:39:33;;;;;;;;;;;;;;;27.21;45.25;93756.41;5036984;28;9265;-86
2022/09/16 12:42:20;;;;;;;;;;;;;;;27.23;45.20;93762.16;5034199;28;8846;-87
2022/09/16 12:45:09;;;;;;;;;;;;;;;27.19;45.37;93767.25;5035295;28;6996;-86
2022/09/16 12:48:01;;;;;;;;;;;;;;;27.20;45.64;93765.25;5041212;28;9150;-86
2022/09/16 12:50:59;;;;;;;;;;;;;;;27.18;45.60;93765.78;5030539;28;7089;-86
2022/09/16 12:54:06;;;;;;;;;;;;;;;27.20;45.63;93763.22;5038558;28;9525;-86
2022/09/16 12:57:06;;;;;;;;;;;;;;;27.17;44.75;93761.53;5039677;28;9011;-86
2022/09/16 13:00:11;;;;;;;;;;;;;;;27.18;45.25;93763.03;5027542;28;8904;-87
2022/09/16 13:02:44;;;;;;;;;;;;;;;27.16;45.64;93765.59;5035223;28;9361;-86
2022/09/16 13:05:22;;;;;;;;;;;;;;;27.16;45.66;93765.59;5050750;28;9062;-86
2022/09/16 13:07:53;;;;;;;;;;;;;;;27.17;45.60;93758.78;5039303;28;9018;-86
2022/09/16 13:10:34;;;;;;;;;;;;;;;27.16;45.58;93756.56;5050036;28;9090;-86
2022/09/16 13:13:06;;;;;;;;;;;;;;;27.16;45.36;93764.84;5034425;28;8780;-86
2022/09/16 13:15:40;;;;;;;;;;;;;;;27.17;45.43;93767.06;5044947;28;8762;-86
2022/09/16 13:18:44;;;;;;;;;;;;;;;27.16;45.56;93765.59;5052405;28;8741;-87
2022/09/16 13:21:22;;;;;;;;;;;;;;;27.15;45.38;93755.81;4978044;28;9050;-86
2022/09/16 13:24:10;;;;;;;;;;;;;;;27.16;44.85;93759.31;4994088;28;8622;-86
2022/09/16 13:26:44;;;;;;;;;;;;;;;27.16;45.69;93757.31;4976448;28;8828;-86
2022/09/16 13:29:35;;;;;;;;;;;;;;;27.17;44.97;93758.78;4988331;28;9072;-86
2022/09/16 13:32:01;;;;;;;;;;;;;;;27.21;45.64;93761.94;4994371;28;9424;-86
2022/09/16 13:34:30;;;;;;;;;;;;;;;27.20;45.58;93757.72;4978160;28;8622;-87
2022/09/16 13:36:59;;;;;;;;;;;;;;;27.21;45.21;93766.75;4975705;28;8661;-86
2022/09/16 13:39:40;;;;;;;;;;;;;;;27.23;45.00;93753.88;4975974;28;9362;-86
2022/09/16 13:42:20;;;;;;;;;;;;;;;27.23;44.95;93758.66;4975492;28;8786;-86